Hastings, OK (73548)

1:44 AM CDT on July 25, 2014 (GMT -0500)
HADS BEAVER CREEK AT WAURIKA LAKE NEA OK US USARMY-COE (MWRLO2) Elev 991 ft | 34.23 °N, 98.05 °W | Change Station
Active Advisory: Heat Advisory

Current weather conditions updated 44 minutes ago

Clear
Clear
69 °F
Feels Like 69 °F
N
10
Wind Variable Wind from ESE
Gusts 0.0 mph

Today is forecast to be Warmer than yesterday.

Today
High -- | Low -- °F
--% Chance of Precip.
Yesterday
High -- | Low -- °F
Precip. -- in
6:38 AM 8:39 PM
Waning Crescent, 3% visible
Pressure 30.01 in
Visibility 10.0 miles
Clouds Clear
Dew Point 55 °F
Humidity 62%
Rainfall 0.00 in
Snow Depth Not available.
UV 0 out of 12
Pollen 4.80 out of 12
Air Quality Not available.
Flu Activity Not available.
METAR KDUC 250635Z AUTO 00000KT 10SM CLR 23/21 A3001 RMK AO2 PWINO TSNO

More Conditions Fewer Conditions

Pressure 30.01 in
Visibility 10.0 miles
Clouds Clear
Dew Point 55 °F
Humidity 62%
Rainfall 0.00 in
Snow Depth Not available.
UV 0 out of 12
Pollen 4.80 out of 12
Air Quality Not available.
Flu Activity Not available.
METAR KDUC 250635Z AUTO 00000KT 10SM CLR 23/21 A3001 RMK AO2 PWINO TSNO

More Conditions Fewer Conditions

10-Day Weather Forecast

Almanac

Astronomy

Jul. 25, 2014 Rise Set
Actual Time 6:38 AM CDT 8:39 PM CDT
Civil Twilight 6:10 AM CDT 9:06 PM CDT
Nautical Twilight 5:36 AM CDT 9:40 PM CDT
Astronomical Twilight 5:00 AM CDT 10:17 PM CDT
Moon 5:37 AM CDT 7:39 PM CDT
Length of Visible Light 14h 56m
Length of Day
14h 00m
Tomorrow will be 1m 25s shorter.
Waning Crescent, 3% of the Moon is Illuminated
Today
Waning Crescent
Jul 26
New
Aug 3
First Quarter
Aug 10
Full
Aug 17
Last Quarter

Today's Extremes

State Highs State Lows

Community

WunderPhotos

Upload Photos

1,737,265 photos uploaded!

Nearby

Snow Depth

Station Depth Elevation
No new snow has been reported.

Earthquake Activity

City Distance Mag. Time & Date
Spencer, Oklahoma 103 miles 2.7 4:56 PM CDT
2014-07-18
Minimum magnitude displayed is 2.5.

Coastal Water Temperatures

Place Temperature
No Stations Reporting

Nearby Weather Stations

Station Location Temp. Heat Index Dew Point Humidity Wind Precip. Elev Updated Type
HADS BEAVER CREEK AT WAURIKA LAKE NEA OK, Hastings, OK 69 °F - 55 °F 62% ESE  at  10 mph 0.00 in / hr 991 ft 1:00 AM CDT MADIS
MesoWest WAURKA , Waurika, OK 77 °F 75 °F - - North  at  - 0.00 in / hr 861 ft 12:35 AM CDT MADIS
MesoWest COMNCH , Comanche, OK 76 °F 74 °F - - North  at  - 0.00 in / hr 994 ft 12:05 AM CDT MADIS
at the ranch, Cookietown, OK 76.6 °F 78 °F 71 °F 82% SE  at  7.6 mph 0.00 in / hr 968 ft 1:43 AM CDT Rapid Fire
RURAL COMANCHE CY, Geronimo, OK 76.9 °F 79 °F 67 °F 71% South  at  0.0 mph 0.00 in / hr 1037 ft 1:33 AM CDT Normal
Duncan Golf and Tennis Club, Duncan, OK 75.9 °F 77 °F 68 °F 76% South  at  0.9 mph 0.00 in / hr 1165 ft 1:44 AM CDT Rapid Fire

Show More Stations Show Fewer Stations